Escanaba, MI

9:59 PM EST on November 23, 2014 (GMT -0500)
Soo Hill Location near | Change Station
CLOSE
Current Station
Personal Weather Station
Location: Escanaba, MI
Elevation: 708 ft
Nearby Weather Stations
Active Advisory: Dense Fog Advisory

Elev 708 ft 45.80 °N, 87.13 °W | Updated 12 seconds ago

Overcast
Overcast
39.2 °F
Feels Like 39 °F
N
0.0
Wind Variable Wind from ESE
Gusts 0.0 mph

Today
High -- | Low -- °F
--% Chance of Precip.
Yesterday
High -- | Low -- °F
Precip. -- in
7:58 AM 5:10 PM
Waxing Crescent, 3% visible
Pressure 29.33 in
Visibility 0.8 miles
Clouds Overcast 200 ft
Windchill 39 °F
Dew Point 35 °F
Humidity 84%
Rainfall 0.17 in
Snow Depth Not available.
UV 0 out of 12
Pollen .10 out of 12
Air Quality Not available.
Flu Activity Not available.
METAR KESC 240255Z AUTO 15004KT 3/4SM OVC002 06/04 A2933 RMK AO1 P0005 60010 57037

More Conditions Fewer Conditions

Pressure 29.33 in
Visibility 0.8 miles
Clouds Overcast 200 ft
Windchill 39 °F
Dew Point 35 °F
Humidity 84%
Rainfall 0.17 in
Snow Depth Not available.
UV 0 out of 12
Pollen .10 out of 12
Air Quality Not available.
Flu Activity Not available.
METAR KESC 240255Z AUTO 15004KT 3/4SM OVC002 06/04 A2933 RMK AO1 P0005 60010 57037

More Conditions Fewer Conditions

10-Day Weather Forecast

Almanac

Astronomy

Nov. 23, 2014 Rise Set
Actual Time
Civil Twilight
Nautical Twilight
Astronomical Twilight
Moon
Length of Visible Light
Length of Day
Tomorrow will be .
, % of the Moon is Illuminated

Today's Extremes

State Highs State Lows

Community

WunderPhotos

Upload Photos

1,773,257 photos uploaded!

WunderBlogs® & News

Nearby

Air Quality

  Air Quality AQ Index Pollutant
Not available.

Snow Depth

Station Depth Elevation

Earthquake Activity

City Distance Mag. Time & Date
Minimum magnitude displayed is 2.5.

Coastal Water Temperatures

Place Temperature

Nearby Weather Stations